EDT,Max TemperatureF,Mean TemperatureF,Min TemperatureF,Max Dew PointF,MeanDew PointF,Min DewpointF,Max Humidity, Mean Humidity, Min Humidity, Max Sea Level PressureIn, Mean Sea Level PressureIn, Min Sea Level PressureIn, Max VisibilityMiles, Mean VisibilityMiles, Min VisibilityMiles, Max Wind SpeedMPH, Mean Wind SpeedMPH, Max Gust SpeedMPH,PrecipitationIn, CloudCover, Events, WindDirDegrees
2013-5-1,65,50,36,40,34,27,87,53,26,30.47,30.44,30.38,10,10,10,14,3,,0.00,1,,141
2013-5-2,72,56,41,45,38,35,85,62,27,30.52,30.44,30.39,10,10,10,20,4,26,0.00,3,Rain,59
2013-5-3,54,46,39,42,38,35,90,69,56,30.54,30.48,30.39,10,10,10,13,7,18,0.00,1,,72
2013-5-4,55,46,39,42,38,34,93,73,49,30.39,30.36,30.33,10,10,10,14,5,17,0.00,0,,88
2013-5-5,57,45,34,40,37,34,97,72,49,30.35,30.31,30.27,10,10,7,14,5,22,0.00,1,,158
2013-5-6,59,47,35,50,43,36,100,91,62,30.30,30.24,30.17,10,5,0,12,3,,0.00,4,Fog,138
2013-5-7,72,58,45,56,50,45,100,81,46,30.19,30.15,30.10,10,6,0,18,4,,0.00,1,Fog,164
2013-5-8,68,58,49,59,56,50,100,88,69,30.23,30.16,30.09,10,9,7,17,6,,0.00,6,Rain,118
2013-5-9,61,56,53,57,55,54,100,98,88,30.07,29.98,29.91,10,4,0,10,5,,0.89,8,Fog-Rain-Thunderstorm,73
2013-5-10,72,62,53,64,56,53,100,93,59,29.96,29.92,29.89,10,5,0,13,4,,0.01,6,Fog,8
2013-5-11,70,61,52,63,59,52,100,90,71,29.90,29.75,29.69,10,7,2,14,6,23,0.10,8,Rain,181
2013-5-12,70,60,50,61,53,25,100,83,37,29.78,29.63,29.55,10,6,2,21,5,29,0.07,7,Rain,218
2013-5-13,57,50,43,30,27,24,58,43,29,30.02,29.92,29.80,10,10,10,18,10,26,0.00,3,,260
2013-5-14,61,48,38,35,29,23,75,48,26,30.05,30.00,29.94,10,10,10,17,7,26,0.00,6,,301
2013-5-15,64,50,37,50,40,28,94,67,28,30.05,29.88,29.66,10,10,7,20,6,20,0.03,5,Rain,186
2013-5-16,80,62,46,51,43,35,100,62,21,29.81,29.65,29.60,10,9,7,22,6,30,0.00,1,,262
2013-5-17,69,58,49,41,40,37,73,52,34,30.21,30.02,29.83,10,10,10,17,8,25,0.00,4,,297
2013-5-18,67,54,45,50,46,37,94,75,35,30.31,30.28,30.22,10,10,7,16,6,,0.00,5,,76
2013-5-19,60,55,50,50,49,48,100,89,70,30.38,30.31,30.24,10,8,2,10,5,,0.02,8,Rain,51
2013-5-20,78,64,50,61,57,50,100,87,57,30.20,30.03,29.93,10,6,0,12,6,,0.07,6,Fog-Rain,201
2013-5-21,58,54,49,57,52,48,100,94,82,30.06,29.98,29.94,10,6,0,16,7,23,0.03,8,Fog-Rain-Thunderstorm,64
2013-5-22,57,53,49,54,51,49,100,96,77,30.05,29.95,29.89,10,5,0,16,8,,1.11,8,Fog-Rain-Thunderstorm,84
2013-5-23,74,62,50,67,58,50,100,94,77,29.93,29.87,29.80,10,5,0,12,5,20,0.07,8,Fog-Rain,139
2013-5-24,71,61,51,68,61,51,100,94,75,29.84,29.72,29.64,10,6,0,17,8,23,0.87,8,Fog-Rain,204
2013-5-25,51,46,39,50,47,37,100,94,85,29.82,29.72,29.67,10,5,1,21,12,28,0.72,8,Rain,336
2013-5-26,58,48,38,41,38,36,100,75,45,30.05,29.79,29.64,10,9,3,20,12,31,0.29,7,Rain,285
2013-5-27,69,56,42,42,36,30,85,51,24,30.18,30.09,30.06,10,10,10,17,10,24,0.00,1,,276
2013-5-28,69,55,42,50,41,33,96,63,27,30.25,30.21,30.17,10,10,10,14,5,,0.00,4,,152
2013-5-29,63,56,50,60,56,50,100,98,88,30.19,30.08,30.00,10,4,0,13,4,,0.25,8,Fog-Rain,116
2013-5-30,86,72,57,66,61,57,100,76,39,30.05,30.01,29.98,10,7,0,16,5,23,0.00,5,Fog,261
2013-5-31,93,78,63,66,64,59,99,63,32,30.07,29.99,29.91,10,10,7,10,5,,0.00,1,,249